Time;durP1;ratioP1;P1;durP2;ratioP2;P2;SDS_P1;SDS_P2;PMS_P1;PMS_P2;Temp;Humidity;BMP_temperature;BMP_pressure;BME280_temperature;BME280_humidity;BME280_pressure;Samples;Min_cycle;Max_cycle;Signal;HPM_P1;HPM_P2
2023/01/10 00:01:32;;;;;;;10.07;3.10;;;4.40;99.90;;;;;;4200729;28;20537;-78
2023/01/10 00:03:34;;;;;;;5.43;3.00;;;4.40;99.90;;;;;;4200039;28;20456;-78
2023/01/10 00:05:37;;;;;;;7.40;2.87;;;4.40;99.90;;;;;;4200596;28;20451;-77
2023/01/10 00:07:39;;;;;;;4.87;2.90;;;4.40;99.90;;;;;;4202975;28;20478;-78
2023/01/10 00:09:41;;;;;;;6.70;3.43;;;4.50;99.90;;;;;;4202246;28;20594;-77
2023/01/10 00:14:02;;;;;;;8.17;3.30;;;4.50;99.90;;;;;;4202176;28;20447;-76
2023/01/10 00:16:09;;;;;;;8.00;3.20;;;4.50;99.90;;;;;;4203632;28;20479;-78
2023/01/10 00:18:12;;;;;;;7.43;3.77;;;4.60;99.90;;;;;;4203411;28;20450;-77
2023/01/10 00:20:14;;;;;;;10.07;3.97;;;4.60;99.90;;;;;;4202768;28;21330;-78
2023/01/10 00:22:23;;;;;;;7.87;3.40;;;4.70;99.90;;;;;;4201476;28;20451;-78
2023/01/10 00:24:25;;;;;;;9.97;4.00;;;4.70;99.90;;;;;;4202338;28;20456;-78
2023/01/10 00:26:27;;;;;;;6.73;3.43;;;4.80;99.90;;;;;;4202950;28;20449;-75
2023/01/10 00:28:33;;;;;;;7.60;3.83;;;4.80;99.90;;;;;;4201196;28;20492;-76
2023/01/10 00:30:35;;;;;;;8.60;3.97;;;4.80;99.90;;;;;;4201001;28;20501;-77
2023/01/10 00:32:37;;;;;;;11.40;4.60;;;4.90;99.90;;;;;;4199443;28;20470;-78
2023/01/10 00:34:40;;;;;;;13.37;4.80;;;4.90;99.90;;;;;;4200300;28;20456;-76
2023/01/10 00:36:44;;;;;;;8.70;4.70;;;4.90;99.90;;;;;;4203440;28;20460;-78
2023/01/10 00:38:46;;;;;;;9.87;4.10;;;5.00;99.90;;;;;;4200870;28;20569;-78
2023/01/10 00:40:48;;;;;;;8.47;3.97;;;5.00;99.90;;;;;;4201792;28;20992;-77
2023/01/10 00:45:10;;;;;;;8.90;4.63;;;5.00;99.90;;;;;;4202178;28;20551;-76
2023/01/10 00:47:13;;;;;;;9.77;5.00;;;5.00;99.90;;;;;;4199883;28;22108;-79
2023/01/10 00:49:16;;;;;;;15.27;4.33;;;5.10;99.90;;;;;;4202219;28;20480;-78
2023/01/10 00:51:19;;;;;;;9.40;4.40;;;5.10;99.90;;;;;;4200814;28;20697;-77
2023/01/10 00:53:22;;;;;;;9.83;4.70;;;5.10;99.90;;;;;;4202756;28;21315;-78
2023/01/10 00:55:24;;;;;;;12.03;4.63;;;5.10;99.90;;;;;;4200675;28;20972;-75
2023/01/10 00:57:26;;;;;;;12.50;5.20;;;5.50;99.90;;;;;;4200387;28;20488;-77
2023/01/10 00:59:28;;;;;;;11.03;4.57;;;5.10;99.90;;;;;;4200237;28;20475;-76
2023/01/10 01:01:30;;;;;;;8.87;4.27;;;5.10;99.90;;;;;;4199612;28;20490;-79
2023/01/10 01:03:32;;;;;;;8.53;3.97;;;5.10;99.90;;;;;;4198199;28;20537;-78
2023/01/10 01:05:39;;;;;;;10.33;4.73;;;5.10;99.90;;;;;;4201388;28;20497;-78
2023/01/10 01:07:42;;;;;;;14.90;4.70;;;5.20;99.90;;;;;;4200004;28;20801;-78
2023/01/10 01:12:00;;;;;;;10.53;4.70;;;5.20;99.90;;;;;;4200986;28;20484;-77
2023/01/10 01:14:02;;;;;;;10.87;4.20;;;5.20;99.90;;;;;;4206137;28;20554;-78
2023/01/10 01:16:04;;;;;;;9.30;3.83;;;5.20;99.90;;;;;;4201544;28;20457;-79
2023/01/10 01:18:06;;;;;;;14.00;4.60;;;5.20;99.90;;;;;;4204562;28;20490;-76
2023/01/10 01:20:09;;;;;;;11.63;4.70;;;5.20;99.90;;;;;;4203416;28;20562;-78
2023/01/10 01:22:11;;;;;;;16.23;4.50;;;5.20;99.90;;;;;;4205564;28;21986;-75
2023/01/10 01:24:15;;;;;;;7.80;4.63;;;5.20;99.90;;;;;;4203621;28;20489;-77
2023/01/10 01:26:16;;;;;;;10.80;5.00;;;5.10;99.90;;;;;;4204131;28;20463;-77
2023/01/10 01:28:20;;;;;;;10.57;4.97;;;5.10;99.90;;;;;;4204361;28;20572;-76
2023/01/10 01:30:22;;;;;;;11.40;5.27;;;5.10;99.90;;;;;;4203177;28;21280;-77
2023/01/10 01:32:25;;;;;;;11.30;5.17;;;5.00;99.90;;;;;;4203704;28;20459;-77
2023/01/10 01:34:27;;;;;;;11.37;5.50;;;5.00;99.90;;;;;;4204137;28;20461;-78
2023/01/10 01:36:29;;;;;;;10.40;5.40;;;5.00;99.90;;;;;;4205309;28;22418;-79
2023/01/10 01:38:31;;;;;;;11.90;5.13;;;5.00;99.90;;;;;;4202920;28;20522;-78
2023/01/10 01:40:35;;;;;;;13.27;5.13;;;5.00;99.90;;;;;;4204612;28;20552;-77
2023/01/10 01:42:36;;;;;;;11.10;4.70;;;5.00;99.90;;;;;;4206530;28;20500;-77
2023/01/10 01:44:41;;;;;;;10.13;4.47;;;4.90;99.90;;;;;;4204175;28;20501;-76
2023/01/10 01:46:46;;;;;;;11.03;4.63;;;5.00;99.90;;;;;;4207023;28;20447;-76
2023/01/10 01:48:49;;;;;;;13.43;4.87;;;4.90;99.90;;;;;;4205186;28;20964;-77
2023/01/10 01:50:56;;;;;;;8.87;4.70;;;5.00;99.90;;;;;;4208511;28;21025;-76
2023/01/10 01:53:00;;;;;;;10.07;5.17;;;5.00;99.90;;;;;;4203368;28;20527;-76
2023/01/10 01:55:05;;;;;;;13.47;5.07;;;5.00;99.90;;;;;;4201970;28;20460;-78
2023/01/10 01:57:13;;;;;;;11.60;4.60;;;5.00;99.90;;;;;;4205258;28;20463;-77
2023/01/10 01:59:20;;;;;;;10.40;4.87;;;5.10;99.90;;;;;;4202075;28;22060;-77
2023/01/10 02:01:23;;;;;;;8.77;4.10;;;5.00;99.90;;;;;;4203520;28;20490;-77
2023/01/10 02:03:25;;;;;;;10.53;5.17;;;5.10;99.90;;;;;;4202954;28;20474;-76
2023/01/10 02:05:27;;;;;;;10.70;4.67;;;5.10;99.90;;;;;;4201518;28;20466;-77
2023/01/10 02:07:36;;;;;;;7.07;4.00;;;5.10;99.90;;;;;;4202804;28;20574;-77
2023/01/10 02:09:43;;;;;;;7.77;3.83;;;5.00;99.90;;;;;;4205470;28;20484;-77
2023/01/10 02:11:45;;;;;;;14.03;4.63;;;5.10;99.90;;;;;;4202616;28;20499;-77
2023/01/10 02:13:49;;;;;;;7.47;4.20;;;5.10;99.90;;;;;;4202890;28;20500;-77
2023/01/10 02:15:51;;;;;;;12.47;5.17;;;5.10;99.90;;;;;;4201192;28;20476;-76
2023/01/10 02:17:53;;;;;;;12.17;4.40;;;5.10;99.90;;;;;;4202653;28;20467;-76
2023/01/10 02:20:02;;;;;;;7.93;4.40;;;5.00;99.90;;;;;;4201694;28;20472;-76
2023/01/10 02:22:55;;;;;;;9.70;4.63;;;5.10;99.90;;;;;;4201415;28;20499;-77
2023/01/10 02:25:25;;;;;;;12.47;4.70;;;5.00;99.90;;;;;;4193384;28;20817;-76
2023/01/10 02:27:31;;;;;;;8.77;4.13;;;5.00;99.90;;;;;;4201477;28;20463;-77
2023/01/10 02:30:11;;;;;;;10.53;4.20;;;5.10;99.90;;;;;;4200929;28;20527;-77
2023/01/10 02:32:21;;;;;;;10.73;4.60;;;5.00;99.90;;;;;;4202826;28;20473;-76
2023/01/10 02:34:28;;;;;;;10.00;4.93;;;5.00;99.90;;;;;;4199347;28;20514;-77
2023/01/10 02:36:40;;;;;;;10.90;5.60;;;5.00;99.90;;;;;;4200629;28;20461;-76
2023/01/10 02:38:51;;;;;;;11.30;5.40;;;5.00;99.90;;;;;;4203208;28;20473;-77
2023/01/10 02:41:06;;;;;;;12.83;5.63;;;5.00;99.90;;;;;;4202719;28;20846;-77
2023/01/10 02:43:12;;;;;;;15.37;5.73;;;4.90;99.90;;;;;;4201282;28;20466;-76
2023/01/10 02:45:17;;;;;;;14.53;6.17;;;4.90;99.90;;;;;;4202723;28;20466;-77
2023/01/10 02:47:21;;;;;;;14.40;6.07;;;4.90;99.90;;;;;;4205101;28;21568;-76
2023/01/10 02:49:22;;;;;;;12.93;5.90;;;4.90;99.90;;;;;;4199594;28;20512;-76
2023/01/10 02:51:27;;;;;;;17.40;7.20;;;4.90;99.90;;;;;;4202828;28;20566;-76
2023/01/10 02:53:34;;;;;;;11.60;5.70;;;4.90;99.90;;;;;;4200552;28;20447;-76
2023/01/10 02:55:47;;;;;;;13.40;6.20;;;4.90;99.90;;;;;;4201197;28;20470;-77
2023/01/10 02:57:57;;;;;;;11.97;6.20;;;4.90;99.90;;;;;;4204197;28;20463;-76
2023/01/10 03:00:28;;;;;;;14.37;6.13;;;5.00;99.90;;;;;;4201964;28;20477;-77
2023/01/10 03:02:52;;;;;;;15.33;6.00;;;5.00;99.90;;;;;;4190719;28;20546;-77
2023/01/10 03:05:03;;;;;;;11.97;5.87;;;5.00;99.90;;;;;;4200797;28;20553;-76
2023/01/10 03:07:17;;;;;;;15.57;5.67;;;5.00;99.90;;;;;;4198979;28;21028;-76
2023/01/10 03:09:26;;;;;;;13.37;5.80;;;5.00;99.90;;;;;;4203646;28;20919;-78
2023/01/10 03:11:42;;;;;;;11.83;4.77;;;5.00;99.90;;;;;;4200786;28;20862;-77
2023/01/10 03:13:51;;;;;;;12.20;5.20;;;5.00;99.90;;;;;;4205786;28;20950;-77
2023/01/10 03:15:54;;;;;;;10.30;4.97;;;5.00;99.90;;;;;;4202293;28;20451;-77
2023/01/10 03:18:01;;;;;;;10.67;5.10;;;5.00;99.90;;;;;;4201773;28;20523;-76
2023/01/10 03:20:06;;;;;;;11.60;5.33;;;5.00;99.90;;;;;;4199608;28;20550;-76
2023/01/10 03:22:10;;;;;;;11.50;4.90;;;5.00;99.90;;;;;;4202617;28;20503;-76
2023/01/10 03:24:17;;;;;;;10.60;5.40;;;5.00;99.90;;;;;;4200259;28;20507;-76
2023/01/10 03:26:26;;;;;;;12.47;5.63;;;5.00;99.90;;;;;;4203398;28;20464;-75
2023/01/10 03:28:33;;;;;;;9.77;4.87;;;5.00;99.90;;;;;;4200642;28;20491;-76
2023/01/10 03:30:42;;;;;;;13.37;5.27;;;5.00;99.90;;;;;;4205027;28;20525;-75
2023/01/10 03:32:44;;;;;;;15.13;5.07;;;5.00;99.90;;;;;;4203611;28;20465;-74
2023/01/10 03:34:48;;;;;;;13.87;5.67;;;5.00;99.90;;;;;;4203807;28;20551;-76
2023/01/10 03:36:59;;;;;;;10.70;5.00;;;5.00;99.90;;;;;;4201727;28;20504;-76
2023/01/10 03:39:09;;;;;;;10.53;5.53;;;4.90;99.90;;;;;;4206759;28;20490;-77
2023/01/10 03:41:16;;;;;;;11.07;5.53;;;5.00;99.90;;;;;;4204370;28;20566;-76
2023/01/10 03:46:00;;;;;;;9.60;5.23;;;4.90;99.90;;;;;;4133758;28;20488;-76
2023/01/10 03:48:05;;;;;;;14.33;4.90;;;5.00;99.90;;;;;;4172649;28;20909;-75
2023/01/10 03:50:11;;;;;;;10.77;5.17;;;4.90;99.90;;;;;;4205140;28;20744;-76
2023/01/10 03:52:17;;;;;;;7.57;4.07;;;5.00;99.90;;;;;;4206436;28;20488;-76
2023/01/10 03:54:19;;;;;;;11.07;5.03;;;4.90;99.90;;;;;;4206803;28;20456;-76
2023/01/10 03:56:21;;;;;;;8.97;4.30;;;5.00;99.90;;;;;;4205986;28;20548;-76
2023/01/10 03:58:23;;;;;;;11.53;4.83;;;4.90;99.90;;;;;;4205734;28;20453;-76
2023/01/10 04:00:25;;;;;;;7.43;4.10;;;4.90;99.90;;;;;;4203664;28;20487;-75
2023/01/10 04:02:29;;;;;;;8.37;4.37;;;4.90;99.90;;;;;;4200269;28;20462;-76
2023/01/10 04:04:31;;;;;;;12.23;4.73;;;5.00;99.90;;;;;;4204645;28;20457;-76
2023/01/10 04:06:34;;;;;;;12.23;4.63;;;4.90;99.90;;;;;;4206593;28;20544;-75
2023/01/10 04:08:36;;;;;;;11.33;4.57;;;4.90;99.90;;;;;;4206009;28;20568;-78
2023/01/10 04:10:38;;;;;;;7.47;4.30;;;4.90;99.90;;;;;;4206734;28;20934;-77
2023/01/10 04:12:40;;;;;;;8.57;4.50;;;4.90;99.90;;;;;;4205263;28;20979;-77
2023/01/10 04:14:44;;;;;;;9.67;4.83;;;5.00;99.90;;;;;;4205618;28;20974;-74
2023/01/10 04:16:46;;;;;;;8.60;4.40;;;4.90;99.90;;;;;;4205460;28;20457;-74
2023/01/10 04:18:48;;;;;;;9.30;4.20;;;5.00;99.90;;;;;;4202578;28;20445;-79
2023/01/10 04:20:49;;;;;;;10.83;5.13;;;4.90;99.90;;;;;;4207659;28;20472;-74
2023/01/10 04:22:53;;;;;;;10.27;4.83;;;5.00;99.90;;;;;;4204933;28;20832;-74
2023/01/10 04:24:55;;;;;;;11.47;4.60;;;5.00;99.90;;;;;;4206635;28;20476;-75
2023/01/10 04:26:57;;;;;;;9.63;4.93;;;4.90;99.90;;;;;;4206136;28;20495;-75
2023/01/10 04:28:59;;;;;;;12.27;4.97;;;4.90;99.90;;;;;;4200983;28;20485;-76
2023/01/10 04:31:01;;;;;;;10.60;4.97;;;4.90;99.90;;;;;;4203513;28;20519;-76
2023/01/10 04:33:03;;;;;;;10.40;4.63;;;4.90;99.90;;;;;;4200563;28;20532;-75
2023/01/10 04:35:06;;;;;;;9.47;5.03;;;4.90;99.90;;;;;;4200857;28;20450;-75
2023/01/10 04:37:08;;;;;;;11.47;4.93;;;5.00;99.90;;;;;;4197426;28;20962;-74
2023/01/10 04:39:12;;;;;;;13.00;5.60;;;5.00;99.90;;;;;;4201110;28;20459;-74
2023/01/10 04:41:14;;;;;;;10.73;4.80;;;5.00;99.90;;;;;;4200666;28;20591;-75
2023/01/10 04:43:17;;;;;;;9.43;4.70;;;5.00;99.90;;;;;;4202549;28;20440;-74
2023/01/10 04:45:20;;;;;;;12.57;5.30;;;5.00;99.90;;;;;;4204193;28;20955;-76
2023/01/10 04:47:22;;;;;;;11.47;5.10;;;5.00;99.90;;;;;;4208844;28;20978;-77
2023/01/10 04:49:24;;;;;;;15.60;5.90;;;5.00;99.90;;;;;;4206502;28;20456;-77
2023/01/10 04:51:27;;;;;;;10.70;5.50;;;5.00;99.90;;;;;;4210493;28;20910;-76
2023/01/10 04:53:29;;;;;;;10.23;5.23;;;5.00;99.90;;;;;;4210909;28;20506;-76
2023/01/10 04:55:33;;;;;;;13.63;5.33;;;5.10;99.90;;;;;;4210131;28;20448;-77
2023/01/10 04:57:35;;;;;;;11.70;5.53;;;5.10;99.90;;;;;;4209506;28;20831;-78
2023/01/10 04:59:38;;;;;;;11.67;5.53;;;5.10;99.90;;;;;;4209609;28;20455;-74
2023/01/10 05:01:40;;;;;;;11.20;4.80;;;5.10;99.90;;;;;;4209590;28;20458;-78
2023/01/10 05:03:42;;;;;;;12.77;5.70;;;5.10;99.90;;;;;;4206418;28;21732;-79
2023/01/10 05:05:44;;;;;;;13.00;6.13;;;5.10;99.90;;;;;;4207979;28;21003;-78
2023/01/10 05:07:47;;;;;;;10.30;5.60;;;5.10;99.90;;;;;;4207174;28;21299;-78
2023/01/10 05:09:49;;;;;;;9.97;5.30;;;5.20;99.90;;;;;;4206222;28;20452;-75
2023/01/10 05:11:52;;;;;;;11.43;5.23;;;5.10;99.90;;;;;;4207065;28;20534;-76
2023/01/10 05:13:54;;;;;;;10.50;5.30;;;5.20;99.90;;;;;;4209482;28;21213;-78
2023/01/10 05:15:57;;;;;;;10.37;5.37;;;5.20;99.90;;;;;;4209152;28;20793;-77
2023/01/10 05:17:59;;;;;;;11.93;5.60;;;5.20;99.90;;;;;;4206600;28;21013;-76
2023/01/10 05:20:01;;;;;;;12.43;6.10;;;5.20;99.90;;;;;;4209068;28;20460;-76
2023/01/10 05:22:03;;;;;;;12.10;5.63;;;5.20;99.90;;;;;;4205623;28;21442;-75
2023/01/10 05:24:05;;;;;;;13.17;5.57;;;5.10;99.90;;;;;;4208787;28;20457;-76
2023/01/10 05:26:09;;;;;;;13.13;5.47;;;5.10;99.90;;;;;;4202438;28;20455;-77
2023/01/10 05:28:12;;;;;;;11.17;6.20;;;5.10;99.90;;;;;;4207518;28;21045;-77
2023/01/10 05:30:15;;;;;;;10.60;5.63;;;5.00;99.90;;;;;;4206291;28;20460;-75
2023/01/10 05:32:17;;;;;;;16.57;6.30;;;5.10;99.90;;;;;;4203903;28;20450;-77
2023/01/10 05:34:19;;;;;;;10.47;5.63;;;5.00;99.90;;;;;;4206618;28;20504;-78
2023/01/10 05:36:21;;;;;;;16.20;6.67;;;5.10;99.90;;;;;;4203260;28;20459;-77
2023/01/10 05:38:23;;;;;;;14.07;6.87;;;5.00;99.90;;;;;;4207071;28;20455;-77
2023/01/10 05:40:25;;;;;;;14.60;6.53;;;4.90;99.90;;;;;;4205959;28;20547;-78
2023/01/10 05:42:27;;;;;;;13.67;6.93;;;5.00;99.90;;;;;;4204839;28;20495;-78
2023/01/10 05:44:30;;;;;;;15.50;7.50;;;5.00;99.90;;;;;;4212294;28;21067;-74
2023/01/10 05:46:32;;;;;;;17.97;7.53;;;5.00;99.90;;;;;;4203248;28;20567;-75
2023/01/10 05:48:34;;;;;;;22.07;9.13;;;5.00;99.90;;;;;;4204088;28;20471;-77
2023/01/10 05:50:36;;;;;;;23.80;8.70;;;5.00;99.90;;;;;;4208312;28;20539;-77
2023/01/10 05:52:39;;;;;;;18.40;7.37;;;5.00;99.90;;;;;;4212112;28;20475;-76
2023/01/10 05:54:41;;;;;;;18.13;6.97;;;5.10;99.90;;;;;;4210540;28;20447;-76
2023/01/10 05:56:43;;;;;;;14.80;7.47;;;5.10;99.90;;;;;;4199482;28;20874;-79
2023/01/10 05:58:45;;;;;;;17.07;7.73;;;5.10;99.90;;;;;;4209640;28;20447;-79
2023/01/10 06:00:48;;;;;;;16.43;7.20;;;5.00;99.90;;;;;;4206591;28;20468;-79
2023/01/10 06:02:50;;;;;;;16.07;8.40;;;5.40;99.90;;;;;;4204303;28;20475;-80
2023/01/10 06:04:54;;;;;;;21.03;9.23;;;5.10;99.90;;;;;;4206936;28;20466;-80
2023/01/10 06:06:55;;;;;;;31.37;13.63;;;5.10;99.90;;;;;;4203173;28;20551;-80
2023/01/10 06:08:58;;;;;;;30.90;11.60;;;5.00;99.90;;;;;;4207101;28;20451;-79
2023/01/10 06:11:00;;;;;;;32.50;13.03;;;5.10;99.90;;;;;;4205933;28;20498;-79
2023/01/10 06:13:03;;;;;;;24.57;11.07;;;5.10;99.90;;;;;;4202131;28;20463;-79
2023/01/10 06:15:06;;;;;;;21.67;10.20;;;5.10;99.90;;;;;;4203902;28;20618;-79
2023/01/10 06:17:10;;;;;;;19.40;8.10;;;5.10;99.90;;;;;;4208363;28;20486;-79
2023/01/10 06:19:12;;;;;;;15.33;6.70;;;5.10;99.90;;;;;;4202403;28;20465;-80
2023/01/10 06:21:14;;;;;;;14.13;6.70;;;5.10;99.90;;;;;;4202204;28;20472;-80
2023/01/10 06:23:16;;;;;;;11.40;6.07;;;5.10;99.90;;;;;;4202627;28;20484;-79
2023/01/10 06:25:18;;;;;;;9.87;5.30;;;5.10;99.90;;;;;;4205687;28;20448;-80
2023/01/10 06:27:20;;;;;;;11.43;5.77;;;5.10;99.90;;;;;;4199940;28;20448;-79
2023/01/10 06:29:22;;;;;;;14.57;5.73;;;5.10;99.90;;;;;;4204007;28;20526;-80
2023/01/10 06:31:23;;;;;;;10.50;5.33;;;5.10;99.90;;;;;;4200264;28;21082;-79
2023/01/10 06:33:27;;;;;;;9.97;5.07;;;5.10;99.90;;;;;;4202995;28;20535;-79
2023/01/10 06:35:29;;;;;;;11.37;5.40;;;5.30;99.90;;;;;;4206635;28;20460;-79
2023/01/10 06:37:31;;;;;;;8.83;4.40;;;5.20;99.90;;;;;;4200298;28;20516;-78
2023/01/10 06:39:33;;;;;;;12.40;5.23;;;5.10;99.90;;;;;;4202558;28;20440;-79
2023/01/10 06:41:35;;;;;;;7.33;4.60;;;5.10;99.90;;;;;;4206409;28;20464;-78
2023/01/10 06:43:37;;;;;;;8.23;4.73;;;5.10;99.90;;;;;;4205899;28;20454;-79
2023/01/10 06:45:39;;;;;;;11.50;4.77;;;5.10;99.90;;;;;;4201710;28;20471;-79
2023/01/10 06:47:41;;;;;;;9.60;4.87;;;5.10;99.90;;;;;;4202578;28;20542;-79
2023/01/10 06:49:44;;;;;;;11.43;4.90;;;5.00;99.90;;;;;;4204997;28;20464;-79
2023/01/10 06:51:46;;;;;;;7.53;3.90;;;5.10;99.90;;;;;;4205352;28;20472;-79
2023/01/10 06:53:48;;;;;;;8.87;4.60;;;5.10;99.90;;;;;;4209013;28;20444;-80
2023/01/10 06:55:50;;;;;;;11.40;4.13;;;5.10;99.90;;;;;;4203721;28;20461;-80
2023/01/10 06:57:56;;;;;;;9.40;4.40;;;5.20;99.90;;;;;;4206090;28;20440;-80
2023/01/10 06:59:58;;;;;;;16.37;5.97;;;5.10;99.90;;;;;;4205716;28;20477;-78
2023/01/10 07:02:00;;;;;;;13.03;5.23;;;5.10;99.90;;;;;;4200416;28;20473;-79
2023/01/10 07:04:02;;;;;;;9.37;4.60;;;5.10;99.90;;;;;;4204247;28;20499;-78
2023/01/10 07:06:08;;;;;;;8.30;4.80;;;5.10;99.90;;;;;;4202667;28;20464;-77
2023/01/10 07:08:10;;;;;;;15.80;3.93;;;5.10;99.90;;;;;;4199150;28;20504;-81
2023/01/10 07:10:12;;;;;;;8.57;4.20;;;5.10;99.90;;;;;;4198254;28;20487;-79
2023/01/10 07:12:17;;;;;;;7.87;4.10;;;5.10;99.90;;;;;;4201849;28;20922;-79
2023/01/10 07:14:19;;;;;;;7.67;3.50;;;5.10;99.90;;;;;;4199893;28;20510;-78
2023/01/10 07:16:21;;;;;;;8.53;3.60;;;5.10;99.90;;;;;;4195582;28;20557;-79
2023/01/10 07:18:23;;;;;;;9.53;3.30;;;5.20;99.90;;;;;;4199710;28;20449;-78
2023/01/10 07:20:25;;;;;;;7.70;3.20;;;5.20;99.90;;;;;;4205493;28;20531;-80
2023/01/10 07:22:28;;;;;;;9.20;3.77;;;5.20;99.90;;;;;;4199166;28;20445;-77
2023/01/10 07:24:30;;;;;;;7.77;2.77;;;5.20;99.90;;;;;;4202670;28;20449;-77
2023/01/10 07:26:32;;;;;;;8.93;2.87;;;5.20;99.90;;;;;;4200245;28;20452;-77
2023/01/10 07:28:34;;;;;;;9.10;2.97;;;5.20;99.90;;;;;;4200707;28;20513;-78
2023/01/10 07:30:37;;;;;;;5.27;2.90;;;5.20;99.90;;;;;;4203729;28;20465;-77
2023/01/10 07:32:39;;;;;;;4.83;2.60;;;5.20;99.90;;;;;;4202795;28;20512;-78
2023/01/10 07:34:41;;;;;;;7.63;2.70;;;5.20;99.90;;;;;;4205904;28;20479;-78
2023/01/10 07:36:43;;;;;;;8.00;3.10;;;5.20;99.90;;;;;;4207996;28;20493;-77
2023/01/10 07:38:46;;;;;;;7.83;3.03;;;5.20;99.90;;;;;;4202974;28;20989;-77
2023/01/10 07:40:48;;;;;;;10.03;3.07;;;5.20;99.90;;;;;;4201031;28;20517;-79
2023/01/10 07:42:55;;;;;;;8.03;2.87;;;5.70;99.90;;;;;;4203091;28;20468;-79
2023/01/10 07:44:57;;;;;;;7.53;2.60;;;5.30;99.90;;;;;;4203322;28;20459;-76
2023/01/10 07:46:59;;;;;;;9.17;3.37;;;5.30;99.90;;;;;;4200958;28;20458;-76
2023/01/10 07:49:01;;;;;;;5.63;2.70;;;5.30;99.90;;;;;;4197661;28;20510;-79
2023/01/10 07:51:04;;;;;;;9.53;2.77;;;5.30;99.90;;;;;;4197211;28;20710;-80
2023/01/10 07:53:07;;;;;;;7.73;2.80;;;5.40;99.90;;;;;;4199811;28;20460;-79
2023/01/10 07:55:11;;;;;;;7.30;2.67;;;5.40;99.90;;;;;;4200677;28;20494;-78
2023/01/10 07:57:14;;;;;;;8.73;3.00;;;5.40;99.90;;;;;;4201248;28;20451;-80
2023/01/10 07:59:16;;;;;;;6.30;2.33;;;5.40;99.90;;;;;;4201328;28;20459;-80
2023/01/10 08:01:18;;;;;;;10.10;2.30;;;5.20;99.90;;;;;;4201565;28;20477;-79
2023/01/10 08:03:21;;;;;;;8.63;2.57;;;5.40;99.90;;;;;;4202031;28;20488;-81
2023/01/10 08:05:23;;;;;;;5.60;2.37;;;5.70;99.90;;;;;;4202075;28;20452;-79
2023/01/10 08:07:25;;;;;;;7.37;2.80;;;5.40;99.90;;;;;;4203659;28;20458;-80
2023/01/10 08:09:26;;;;;;;9.97;3.40;;;5.40;99.90;;;;;;4202918;28;20516;-79
2023/01/10 08:11:30;;;;;;;6.53;2.63;;;5.50;99.90;;;;;;4201911;28;20488;-80
2023/01/10 08:13:32;;;;;;;5.43;2.57;;;5.50;99.90;;;;;;4199814;28;20458;-79
2023/01/10 08:15:34;;;;;;;9.60;3.30;;;5.40;99.90;;;;;;4203785;28;20467;-79
2023/01/10 08:17:36;;;;;;;8.07;2.90;;;5.40;99.90;;;;;;4198632;28;20477;-78
2023/01/10 08:19:38;;;;;;;11.57;3.43;;;5.40;99.90;;;;;;4197942;28;20454;-79
2023/01/10 08:21:40;;;;;;;9.93;3.03;;;5.40;99.90;;;;;;4200012;28;20460;-79
2023/01/10 08:23:42;;;;;;;11.87;3.37;;;5.40;99.90;;;;;;4202516;28;20464;-79
2023/01/10 08:25:45;;;;;;;7.73;3.20;;;5.40;99.90;;;;;;4202499;28;20452;-79
2023/01/10 08:27:48;;;;;;;8.70;3.20;;;5.40;99.90;;;;;;4203260;28;20458;-78
2023/01/10 08:29:50;;;;;;;7.33;3.10;;;5.50;99.90;;;;;;4197028;28;20480;-80
2023/01/10 08:31:52;;;;;;;9.20;3.27;;;5.80;99.90;;;;;;4201333;28;20525;-80
2023/01/10 08:33:55;;;;;;;9.67;3.33;;;5.50;99.90;;;;;;4204654;28;20445;-80
2023/01/10 08:35:57;;;;;;;9.00;3.50;;;5.50;99.90;;;;;;4209932;28;20540;-80
2023/01/10 08:38:00;;;;;;;8.50;3.50;;;5.50;99.90;;;;;;4201255;28;20464;-79
2023/01/10 08:40:02;;;;;;;8.70;3.37;;;5.60;99.90;;;;;;4203825;28;20452;-80
2023/01/10 08:42:04;;;;;;;9.10;3.43;;;5.60;99.90;;;;;;4203673;28;20522;-77
2023/01/10 08:44:07;;;;;;;11.87;2.90;;;5.60;99.90;;;;;;4200311;28;20996;-79
2023/01/10 08:46:09;;;;;;;8.77;3.37;;;5.60;99.90;;;;;;4201014;28;20458;-79
2023/01/10 08:48:11;;;;;;;12.80;3.77;;;5.70;99.90;;;;;;4204150;28;20463;-80
2023/01/10 08:50:13;;;;;;;12.13;3.73;;;5.70;99.90;;;;;;4201639;28;20507;-76
2023/01/10 08:52:15;;;;;;;8.90;3.73;;;5.80;99.90;;;;;;4200564;28;20558;-78
2023/01/10 08:54:17;;;;;;;7.13;3.40;;;5.60;99.90;;;;;;4202015;28;20452;-78
2023/01/10 08:56:19;;;;;;;9.70;3.30;;;5.70;99.90;;;;;;4209070;28;20982;-80
2023/01/10 08:58:21;;;;;;;7.47;3.40;;;5.80;99.90;;;;;;4209159;28;20562;-78
2023/01/10 09:00:25;;;;;;;9.60;3.90;;;5.80;99.90;;;;;;4205489;28;21056;-79
2023/01/10 09:02:27;;;;;;;10.47;3.60;;;5.80;99.90;;;;;;4202453;28;20458;-80
2023/01/10 09:04:29;;;;;;;10.53;3.67;;;5.80;99.90;;;;;;4202442;28;20457;-79
2023/01/10 09:06:31;;;;;;;8.47;3.20;;;5.80;99.90;;;;;;4203548;28;20520;-80
2023/01/10 09:08:33;;;;;;;9.47;3.83;;;6.30;99.90;;;;;;4202993;28;20450;-80
2023/01/10 09:10:35;;;;;;;8.80;3.53;;;5.90;99.90;;;;;;4205237;28;20463;-81
2023/01/10 09:12:55;;;;;;;8.83;3.80;;;5.90;99.90;;;;;;4200460;28;20543;-80
2023/01/10 09:14:57;;;;;;;11.77;4.10;;;5.90;99.90;;;;;;4206304;28;20445;-77
2023/01/10 09:17:00;;;;;;;9.83;3.70;;;5.90;99.90;;;;;;4204410;28;20449;-79
2023/01/10 09:19:02;;;;;;;9.17;3.50;;;6.00;99.90;;;;;;4201947;28;20465;-79
2023/01/10 09:21:04;;;;;;;13.13;4.00;;;6.00;99.90;;;;;;4204082;28;20476;-80
2023/01/10 09:23:08;;;;;;;9.37;3.50;;;6.00;99.90;;;;;;4204171;28;20818;-79
2023/01/10 09:25:11;;;;;;;8.10;3.87;;;6.00;99.90;;;;;;4202319;28;21256;-80
2023/01/10 09:27:13;;;;;;;13.03;3.70;;;6.00;99.90;;;;;;4201412;28;20465;-80
2023/01/10 09:29:15;;;;;;;8.77;3.40;;;6.10;99.90;;;;;;4200606;28;20537;-80
2023/01/10 09:31:17;;;;;;;7.80;3.87;;;6.10;99.90;;;;;;4200178;28;20470;-79
2023/01/10 09:33:20;;;;;;;9.87;3.67;;;6.40;99.90;;;;;;4200620;28;20503;-79
2023/01/10 09:35:23;;;;;;;5.67;3.30;;;6.20;99.90;;;;;;4201546;28;20504;-79
2023/01/10 09:37:25;;;;;;;9.67;3.57;;;6.20;99.90;;;;;;4207692;28;20457;-77
2023/01/10 09:39:28;;;;;;;10.23;3.87;;;6.20;99.90;;;;;;4202512;28;20462;-78
2023/01/10 09:42:00;;;;;;;8.87;3.93;;;6.30;99.90;;;;;;4206850;28;20485;-80
2023/01/10 09:44:05;;;;;;;8.47;3.50;;;6.30;99.90;;;;;;4202116;28;20519;-80
2023/01/10 09:46:14;;;;;;;10.37;3.30;;;6.30;99.90;;;;;;4206741;28;20523;-80
2023/01/10 09:48:24;;;;;;;8.57;3.53;;;6.30;99.90;;;;;;4203211;28;20479;-79
2023/01/10 09:50:34;;;;;;;7.33;3.60;;;6.40;99.90;;;;;;4205107;28;20481;-80
2023/01/10 09:52:42;;;;;;;10.30;3.23;;;6.40;99.90;;;;;;4210724;28;20583;-80
2023/01/10 09:54:44;;;;;;;10.37;3.33;;;6.40;99.90;;;;;;4213681;28;20446;-80
2023/01/10 09:56:48;;;;;;;8.27;3.27;;;6.50;99.90;;;;;;4206058;28;20541;-79
2023/01/10 09:58:50;;;;;;;6.67;2.90;;;6.50;99.90;;;;;;4211075;28;20553;-78
2023/01/10 10:00:56;;;;;;;10.17;3.23;;;6.50;99.90;;;;;;4208959;28;20477;-79
2023/01/10 10:02:58;;;;;;;7.07;2.83;;;6.50;99.90;;;;;;4206590;28;20494;-77
2023/01/10 10:05:09;;;;;;;6.10;2.93;;;6.50;99.90;;;;;;4204599;28;20506;-76
2023/01/10 10:07:14;;;;;;;6.40;2.60;;;6.50;99.90;;;;;;4210478;28;20477;-76
2023/01/10 10:09:20;;;;;;;11.43;2.77;;;6.50;99.90;;;;;;4205071;28;20842;-78
2023/01/10 10:11:49;;;;;;;10.13;3.43;;;6.50;99.90;;;;;;4206523;28;20486;-76
2023/01/10 10:14:00;;;;;;;9.27;3.67;;;6.50;99.90;;;;;;4205316;28;20466;-76
2023/01/10 10:16:11;;;;;;;8.10;2.90;;;6.50;99.90;;;;;;4207383;28;20885;-77
2023/01/10 10:18:23;;;;;;;8.70;2.97;;;6.60;99.90;;;;;;4199817;28;20461;-78
2023/01/10 10:20:53;;;;;;;9.80;2.80;;;6.60;99.90;;;;;;4197037;28;20447;-77
2023/01/10 10:23:08;;;;;;;12.57;4.07;;;6.60;99.90;;;;;;4200660;28;20485;-76
2023/01/10 10:25:22;;;;;;;13.90;3.40;;;6.70;99.90;;;;;;4199728;28;20885;-79
2023/01/10 10:27:31;;;;;;;11.60;3.40;;;6.70;99.90;;;;;;4205069;28;20515;-79
2023/01/10 10:29:58;;;;;;;10.73;3.73;;;6.70;99.90;;;;;;4204040;28;20478;-79
2023/01/10 10:32:20;;;;;;;9.53;2.83;;;6.70;99.90;;;;;;4201965;28;20479;-79
2023/01/10 10:34:34;;;;;;;9.50;3.00;;;6.80;99.90;;;;;;4204263;28;20930;-80
2023/01/10 10:36:42;;;;;;;5.87;2.40;;;6.70;99.90;;;;;;4209344;28;20464;-80
2023/01/10 10:38:47;;;;;;;5.70;2.40;;;6.80;99.90;;;;;;4202898;28;20460;-77
2023/01/10 10:40:52;;;;;;;9.17;2.43;;;6.80;99.90;;;;;;4201641;28;20895;-78
2023/01/10 10:42:56;;;;;;;7.43;2.37;;;6.80;99.90;;;;;;4204190;28;20455;-76
2023/01/10 10:45:02;;;;;;;9.20;2.43;;;6.80;99.90;;;;;;4202086;28;20923;-78
2023/01/10 10:47:13;;;;;;;8.07;2.10;;;6.80;99.90;;;;;;4199139;28;20447;-76
2023/01/10 10:49:22;;;;;;;11.00;2.77;;;6.80;99.90;;;;;;4204450;28;20450;-78
2023/01/10 10:51:27;;;;;;;6.23;2.57;;;6.80;99.90;;;;;;4206105;28;20497;-77
2023/01/10 10:53:35;;;;;;;6.80;2.10;;;6.80;99.90;;;;;;4204340;28;20485;-79
2023/01/10 10:55:38;;;;;;;6.00;2.00;;;6.80;99.90;;;;;;4201284;28;20455;-79
2023/01/10 10:57:41;;;;;;;7.30;2.30;;;6.90;99.90;;;;;;4208192;28;20450;-79
2023/01/10 10:59:48;;;;;;;6.07;2.20;;;6.90;99.90;;;;;;4205082;28;20449;-77
2023/01/10 11:01:50;;;;;;;6.17;2.57;;;6.90;99.90;;;;;;4201790;28;21010;-77